Time;durP1;ratioP1;P1;durP2;ratioP2;P2;SDS_P1;SDS_P2;PMS_P1;PMS_P2;Temp;Humidity;BMP_temperature;BMP_pressure;BME280_temperature;BME280_humidity;BME280_pressure;Samples;Min_cycle;Max_cycle;Signal;HPM_P1;HPM_P2
2023/07/24 00:00:41;;;;;;;6.83;6.23;;;19.00;99.90;;;;;;5033770;28;20892;-72
2023/07/24 00:03:09;;;;;;;6.23;5.73;;;19.00;99.90;;;;;;5034685;28;20978;-72
2023/07/24 00:05:37;;;;;;;5.93;5.37;;;18.90;99.90;;;;;;5033692;28;20441;-72
2023/07/24 00:08:07;;;;;;;6.00;5.50;;;18.90;99.90;;;;;;5032603;28;20486;-72
2023/07/24 00:10:35;;;;;;;6.37;5.80;;;18.90;99.90;;;;;;5033513;28;20466;-72
2023/07/24 00:13:03;;;;;;;6.47;5.97;;;18.90;99.90;;;;;;5033918;28;20497;-72
2023/07/24 00:15:31;;;;;;;6.30;5.30;;;18.90;99.90;;;;;;5033534;28;20530;-72
2023/07/24 00:18:00;;;;;;;6.23;5.73;;;18.90;99.90;;;;;;5033312;28;20781;-72
2023/07/24 00:20:28;;;;;;;6.37;5.40;;;18.90;99.90;;;;;;5034169;28;20451;-72
2023/07/24 00:22:56;;;;;;;6.20;5.60;;;18.90;99.90;;;;;;5033494;28;20463;-72
2023/07/24 00:25:25;;;;;;;5.93;5.43;;;18.90;99.90;;;;;;5032211;28;20501;-72
2023/07/24 00:27:54;;;;;;;6.27;5.67;;;18.90;99.90;;;;;;5032101;28;20494;-72
2023/07/24 00:30:22;;;;;;;6.07;5.57;;;18.90;99.90;;;;;;5033240;28;20561;-72
2023/07/24 00:32:51;;;;;;;6.27;5.47;;;18.90;99.90;;;;;;5033437;28;20811;-72
2023/07/24 00:35:19;;;;;;;5.77;5.27;;;18.90;99.90;;;;;;5032088;28;20438;-72
2023/07/24 00:37:47;;;;;;;5.67;4.93;;;18.90;99.90;;;;;;5032009;28;20446;-72
2023/07/24 00:40:15;;;;;;;8.03;6.13;;;18.90;99.90;;;;;;5032012;28;20438;-72
2023/07/24 00:42:49;;;;;;;6.00;5.40;;;18.90;99.90;;;;;;5031996;28;20737;-72
2023/07/24 00:45:17;;;;;;;8.30;6.43;;;18.90;99.90;;;;;;5032118;28;20485;-72
2023/07/24 00:47:45;;;;;;;5.70;5.30;;;18.90;99.90;;;;;;5033221;28;20530;-72
2023/07/24 00:50:14;;;;;;;5.90;5.40;;;18.90;99.90;;;;;;5031866;28;20451;-72
2023/07/24 00:52:43;;;;;;;6.00;5.50;;;18.90;99.90;;;;;;5031952;28;20439;-72
2023/07/24 00:55:16;;;;;;;5.30;4.90;;;18.90;99.90;;;;;;5033425;28;20505;-72
2023/07/24 00:57:45;;;;;;;6.60;5.40;;;18.90;99.90;;;;;;5032186;28;20448;-72
2023/07/24 01:00:16;;;;;;;6.63;5.83;;;18.90;99.90;;;;;;5033267;28;20439;-72
2023/07/24 01:02:44;;;;;;;6.43;5.43;;;18.90;99.90;;;;;;5031729;28;20509;-72
2023/07/24 01:05:14;;;;;;;6.80;5.90;;;18.90;99.90;;;;;;5033011;28;20928;-72
2023/07/24 01:07:43;;;;;;;5.70;5.20;;;18.90;99.90;;;;;;5033307;28;20806;-72
2023/07/24 01:10:11;;;;;;;5.93;5.43;;;19.00;99.90;;;;;;5031742;28;20466;-73
2023/07/24 01:12:46;;;;;;;6.87;6.27;;;18.90;99.90;;;;;;5031668;28;20468;-72
2023/07/24 01:15:20;;;;;;;6.53;5.87;;;19.00;99.90;;;;;;5033246;28;20426;-72
2023/07/24 01:17:54;;;;;;;6.10;5.50;;;18.90;99.90;;;;;;5031743;28;20408;-72
2023/07/24 01:20:24;;;;;;;6.50;5.90;;;18.90;99.90;;;;;;5031631;28;20513;-72
2023/07/24 01:23:06;;;;;;;6.53;6.03;;;18.90;99.90;;;;;;5031667;28;20469;-72
2023/07/24 01:25:36;;;;;;;6.90;6.20;;;18.90;99.90;;;;;;5031777;28;20453;-72
2023/07/24 01:28:09;;;;;;;6.20;5.70;;;18.90;99.90;;;;;;5033175;28;20485;-72
2023/07/24 01:30:37;;;;;;;6.80;6.20;;;18.90;99.90;;;;;;5035402;28;21009;-73
2023/07/24 01:33:05;;;;;;;5.97;5.40;;;18.90;99.90;;;;;;5036736;28;20458;-72
2023/07/24 01:35:34;;;;;;;6.30;5.70;;;18.90;99.90;;;;;;5036787;28;20448;-72
2023/07/24 01:38:04;;;;;;;6.67;6.17;;;18.90;99.90;;;;;;5035120;28;20451;-72
2023/07/24 01:40:33;;;;;;;7.63;6.87;;;18.90;99.90;;;;;;5035137;28;20478;-72
2023/07/24 01:43:01;;;;;;;7.40;6.80;;;18.90;99.90;;;;;;5036814;28;20959;-72
2023/07/24 01:45:31;;;;;;;9.57;7.40;;;18.80;99.90;;;;;;5035032;28;20962;-72
2023/07/24 01:48:00;;;;;;;7.90;7.20;;;18.80;99.90;;;;;;5034971;28;20535;-72
2023/07/24 01:50:28;;;;;;;8.00;6.73;;;18.80;99.90;;;;;;5034936;28;20467;-72
2023/07/24 01:52:56;;;;;;;7.63;6.83;;;18.80;99.90;;;;;;5036415;28;20514;-72
2023/07/24 01:55:25;;;;;;;6.93;6.43;;;18.80;99.90;;;;;;5034844;28;20451;-72
2023/07/24 01:57:53;;;;;;;8.50;7.80;;;18.80;99.90;;;;;;5034899;28;20450;-72
2023/07/24 02:00:22;;;;;;;7.60;7.00;;;18.80;99.90;;;;;;5034723;28;20555;-73
2023/07/24 02:02:59;;;;;;;10.77;7.77;;;18.80;99.90;;;;;;5035928;28;20469;-72
2023/07/24 02:05:27;;;;;;;8.60;7.80;;;18.70;99.90;;;;;;5034962;28;20451;-72
2023/07/24 02:07:56;;;;;;;7.00;6.40;;;18.80;99.90;;;;;;5035860;28;20439;-72
2023/07/24 02:10:24;;;;;;;7.67;7.07;;;18.70;99.90;;;;;;5034384;28;20528;-72
2023/07/24 02:12:52;;;;;;;7.70;7.00;;;18.70;99.90;;;;;;5034729;28;20451;-72
2023/07/24 02:15:20;;;;;;;7.80;7.03;;;18.70;99.90;;;;;;5034671;28;20446;-72
2023/07/24 02:17:48;;;;;;;8.43;7.00;;;18.70;99.90;;;;;;5034380;28;20546;-72
2023/07/24 02:20:19;;;;;;;8.50;7.70;;;18.70;99.90;;;;;;5034250;28;20429;-72
2023/07/24 02:22:47;;;;;;;7.57;6.87;;;18.70;99.90;;;;;;5036298;28;20936;-72
2023/07/24 02:25:15;;;;;;;8.00;7.07;;;18.70;99.90;;;;;;5034489;28;20541;-72
2023/07/24 02:27:43;;;;;;;7.63;6.93;;;18.70;99.90;;;;;;5035510;28;20497;-72
2023/07/24 02:30:12;;;;;;;8.50;7.53;;;18.70;99.90;;;;;;5034277;28;20422;-72
2023/07/24 02:32:40;;;;;;;8.00;7.33;;;18.70;99.90;;;;;;5035946;28;20445;-72
2023/07/24 02:35:09;;;;;;;8.47;7.67;;;18.70;99.90;;;;;;5035632;28;20435;-72
2023/07/24 02:37:40;;;;;;;8.77;8.00;;;18.70;99.90;;;;;;5035602;28;20447;-72
2023/07/24 02:40:13;;;;;;;8.57;7.87;;;18.70;99.90;;;;;;5035109;28;20412;-72
2023/07/24 02:42:41;;;;;;;8.43;7.73;;;18.70;99.90;;;;;;5033873;28;20443;-72
2023/07/24 02:45:10;;;;;;;8.70;7.97;;;18.60;99.90;;;;;;5033930;28;20517;-72
2023/07/24 02:47:39;;;;;;;9.37;8.47;;;18.60;99.90;;;;;;5033882;28;20455;-72
2023/07/24 02:50:08;;;;;;;9.03;8.23;;;18.60;99.90;;;;;;5034961;28;20431;-72
2023/07/24 02:52:36;;;;;;;8.27;7.47;;;18.60;99.90;;;;;;5033704;28;20545;-72
2023/07/24 02:55:06;;;;;;;9.17;8.27;;;18.60;99.90;;;;;;5033964;28;20511;-72
2023/07/24 02:57:34;;;;;;;8.40;7.70;;;18.60;99.90;;;;;;5034914;28;20450;-70
2023/07/24 03:00:02;;;;;;;8.27;7.57;;;18.50;99.90;;;;;;5033584;28;20439;-70
2023/07/24 03:02:31;;;;;;;9.07;8.27;;;18.50;99.90;;;;;;5034777;28;20473;-70
2023/07/24 03:04:59;;;;;;;8.93;8.23;;;18.50;99.90;;;;;;5034899;28;20506;-70
2023/07/24 03:07:27;;;;;;;10.07;9.27;;;18.50;99.90;;;;;;5033453;28;20480;-70
2023/07/24 03:09:55;;;;;;;9.90;9.00;;;18.40;99.90;;;;;;5033361;28;20450;-70
2023/07/24 03:12:25;;;;;;;8.60;7.90;;;18.40;99.90;;;;;;5033282;28;20914;-70
2023/07/24 03:14:53;;;;;;;10.23;8.37;;;18.40;99.90;;;;;;5033364;28;20915;-70
2023/07/24 03:17:21;;;;;;;13.57;12.30;;;18.40;99.90;;;;;;5034602;28;20471;-70
2023/07/24 03:19:50;;;;;;;11.53;10.50;;;18.40;99.90;;;;;;5033171;28;20446;-70
2023/07/24 03:22:18;;;;;;;13.60;12.53;;;18.30;99.90;;;;;;5033157;28;20455;-70
2023/07/24 03:24:47;;;;;;;12.87;11.57;;;18.30;99.90;;;;;;5033127;28;20896;-70
2023/07/24 03:27:15;;;;;;;10.80;9.90;;;18.30;99.90;;;;;;5033054;28;20450;-70
2023/07/24 03:29:44;;;;;;;21.70;19.80;;;18.30;99.90;;;;;;5033018;28;20509;-70
2023/07/24 03:32:14;;;;;;;10.60;9.70;;;18.30;99.90;;;;;;5032804;28;20467;-70
2023/07/24 03:34:42;;;;;;;9.33;7.97;;;18.20;99.90;;;;;;5033903;28;20843;-70
2023/07/24 03:37:10;;;;;;;8.07;7.37;;;18.20;99.90;;;;;;5034171;28;20435;-70
2023/07/24 03:39:38;;;;;;;7.67;7.07;;;18.20;99.90;;;;;;5034743;28;20501;-70
2023/07/24 03:42:06;;;;;;;7.50;6.90;;;18.20;99.90;;;;;;5032781;28;20486;-70
2023/07/24 03:44:34;;;;;;;8.33;7.63;;;18.10;99.90;;;;;;5032777;28;20472;-70
2023/07/24 03:47:04;;;;;;;8.43;7.47;;;18.10;99.90;;;;;;5032675;28;20447;-70
2023/07/24 03:49:32;;;;;;;7.80;7.20;;;18.10;99.90;;;;;;5034005;28;20443;-70
2023/07/24 03:52:00;;;;;;;7.60;7.00;;;18.10;99.90;;;;;;5033362;28;20995;-70
2023/07/24 03:54:28;;;;;;;7.93;7.33;;;18.10;99.90;;;;;;5033960;28;20850;-70
2023/07/24 03:56:57;;;;;;;9.83;8.17;;;18.10;99.90;;;;;;5032579;28;20766;-70
2023/07/24 03:59:25;;;;;;;8.77;8.03;;;18.10;99.90;;;;;;5032586;28;20451;-70
2023/07/24 04:01:53;;;;;;;8.00;6.87;;;18.10;99.90;;;;;;5033704;28;20557;-70
2023/07/24 04:04:22;;;;;;;6.90;6.33;;;18.10;99.90;;;;;;5033633;28;20474;-70
2023/07/24 04:06:50;;;;;;;7.57;6.97;;;18.10;99.90;;;;;;5033650;28;20418;-70
2023/07/24 04:09:18;;;;;;;7.80;7.10;;;18.10;99.90;;;;;;5034182;28;20442;-70
2023/07/24 04:11:47;;;;;;;7.47;6.80;;;18.10;99.90;;;;;;5033410;28;20569;-70
2023/07/24 04:14:15;;;;;;;8.20;7.40;;;18.10;99.90;;;;;;5034102;28;20474;-70
2023/07/24 04:16:43;;;;;;;7.13;6.43;;;18.10;99.90;;;;;;5033497;28;20928;-72
2023/07/24 04:19:11;;;;;;;7.10;6.50;;;18.10;99.90;;;;;;5034041;28;20467;-72
2023/07/24 04:21:42;;;;;;;7.80;7.10;;;18.10;99.90;;;;;;5032069;28;20466;-72
2023/07/24 04:24:10;;;;;;;7.57;6.27;;;18.20;99.90;;;;;;5033449;28;21002;-72
2023/07/24 04:26:39;;;;;;;7.23;6.63;;;18.20;99.90;;;;;;5032186;28;20604;-72
2023/07/24 04:29:07;;;;;;;6.67;6.07;;;18.20;99.90;;;;;;5032152;28;20684;-72
2023/07/24 04:31:35;;;;;;;7.10;6.50;;;18.20;99.90;;;;;;5033472;28;20458;-72
2023/07/24 04:34:03;;;;;;;6.40;5.80;;;18.20;99.90;;;;;;5033815;28;20438;-72
2023/07/24 04:36:31;;;;;;;6.23;5.73;;;18.20;99.90;;;;;;5033550;28;20518;-72
2023/07/24 04:39:01;;;;;;;5.40;4.90;;;18.30;99.90;;;;;;5032225;28;20910;-72
2023/07/24 04:41:29;;;;;;;6.00;5.50;;;18.30;99.90;;;;;;5033241;28;20460;-72
2023/07/24 04:43:57;;;;;;;6.67;6.03;;;18.30;99.90;;;;;;5033503;28;20443;-72
2023/07/24 04:46:26;;;;;;;7.03;6.33;;;18.40;99.90;;;;;;5031984;28;20500;-72
2023/07/24 04:48:54;;;;;;;6.97;6.47;;;18.40;99.90;;;;;;5033310;28;20431;-72
2023/07/24 04:51:22;;;;;;;6.87;6.27;;;18.40;99.90;;;;;;5031878;28;20863;-72
2023/07/24 04:53:50;;;;;;;6.93;6.23;;;18.40;99.90;;;;;;5033115;28;20846;-70
2023/07/24 04:56:19;;;;;;;6.70;6.20;;;18.40;99.90;;;;;;5033176;28;20992;-69
2023/07/24 04:58:47;;;;;;;8.77;6.33;;;18.40;99.90;;;;;;5033529;28;20435;-71
2023/07/24 05:01:15;;;;;;;7.07;6.37;;;18.50;99.90;;;;;;5033007;28;20820;-70
2023/07/24 05:03:43;;;;;;;5.97;5.47;;;18.40;99.90;;;;;;5031757;28;20447;-70
2023/07/24 05:06:11;;;;;;;5.87;5.37;;;18.50;99.90;;;;;;5036805;28;20561;-70
2023/07/24 05:08:40;;;;;;;7.03;6.47;;;18.50;99.90;;;;;;5036989;28;20442;-70
2023/07/24 05:11:08;;;;;;;7.40;6.70;;;18.50;99.90;;;;;;5036803;28;20477;-69
2023/07/24 05:13:37;;;;;;;5.97;5.47;;;18.50;99.90;;;;;;5035643;28;20447;-70
2023/07/24 05:16:05;;;;;;;6.83;6.10;;;18.60;99.90;;;;;;5037567;28;20493;-70
2023/07/24 05:18:34;;;;;;;7.30;6.67;;;18.50;99.90;;;;;;5036903;28;20438;-70
2023/07/24 05:21:02;;;;;;;5.70;5.20;;;18.50;99.90;;;;;;5036676;28;20461;-70
2023/07/24 05:23:30;;;;;;;7.03;6.40;;;18.60;99.90;;;;;;5036667;28;20861;-70
2023/07/24 05:25:59;;;;;;;6.30;5.80;;;18.60;99.90;;;;;;5036781;28;20477;-70
2023/07/24 05:28:27;;;;;;;6.40;5.90;;;18.60;99.90;;;;;;5036586;28;20439;-69
2023/07/24 05:30:57;;;;;;;7.53;6.77;;;18.60;99.90;;;;;;5036385;28;21084;-70
2023/07/24 05:33:25;;;;;;;7.40;6.80;;;18.60;99.90;;;;;;5035272;28;20456;-71
2023/07/24 05:35:58;;;;;;;5.77;5.37;;;18.60;99.90;;;;;;5037045;28;20529;-70
2023/07/24 05:38:26;;;;;;;7.17;6.23;;;18.70;99.90;;;;;;5037143;28;20780;-70
2023/07/24 05:40:57;;;;;;;6.80;6.27;;;18.70;99.90;;;;;;5036430;28;20557;-70
2023/07/24 05:43:25;;;;;;;6.67;6.07;;;18.70;99.90;;;;;;5035049;28;20462;-70
2023/07/24 05:45:56;;;;;;;6.33;5.73;;;18.70;99.90;;;;;;5036311;28;20470;-70
2023/07/24 05:48:25;;;;;;;6.87;6.17;;;18.70;99.90;;;;;;5036302;28;20409;-70
2023/07/24 05:50:53;;;;;;;6.73;6.23;;;18.70;99.90;;;;;;5036372;28;20553;-70
2023/07/24 05:53:21;;;;;;;6.90;6.37;;;18.70;99.90;;;;;;5036194;28;20858;-70
2023/07/24 05:55:58;;;;;;;7.27;6.67;;;18.80;99.90;;;;;;5036183;28;20894;-70
2023/07/24 05:58:26;;;;;;;8.67;8.00;;;18.80;99.90;;;;;;5036214;28;20423;-70
2023/07/24 06:00:56;;;;;;;8.93;8.13;;;18.80;99.90;;;;;;5035918;28;21079;-70
2023/07/24 06:03:24;;;;;;;8.50;7.80;;;18.80;99.90;;;;;;5033937;28;20454;-70
2023/07/24 06:05:53;;;;;;;9.07;8.37;;;18.80;99.90;;;;;;5035605;28;20516;-70
2023/07/24 06:08:22;;;;;;;8.60;7.90;;;18.80;99.90;;;;;;5034519;28;20493;-70
2023/07/24 06:10:51;;;;;;;9.93;8.93;;;18.80;99.90;;;;;;5035704;28;20482;-70
2023/07/24 06:13:20;;;;;;;8.67;7.80;;;18.80;99.90;;;;;;5036331;28;20518;-70
2023/07/24 06:15:48;;;;;;;8.37;7.67;;;18.80;99.90;;;;;;5035097;28;20450;-70
2023/07/24 06:18:18;;;;;;;8.60;7.90;;;18.80;99.90;;;;;;5035759;28;20442;-70
2023/07/24 06:20:46;;;;;;;9.67;8.87;;;18.80;99.90;;;;;;5035555;28;20454;-70
2023/07/24 06:23:14;;;;;;;7.80;7.20;;;18.90;99.90;;;;;;5035370;28;20526;-70
2023/07/24 06:25:43;;;;;;;9.30;8.60;;;18.90;99.90;;;;;;5034122;28;20878;-70
2023/07/24 06:28:11;;;;;;;9.13;7.80;;;18.90;99.90;;;;;;5034524;28;20537;-70
2023/07/24 06:30:40;;;;;;;8.87;8.27;;;18.90;99.90;;;;;;5034379;28;21010;-70
2023/07/24 06:33:08;;;;;;;9.47;8.77;;;18.90;99.90;;;;;;5035392;28;20441;-70
2023/07/24 06:35:37;;;;;;;9.93;8.93;;;18.90;99.90;;;;;;5035085;28;20435;-70
2023/07/24 06:38:08;;;;;;;9.13;8.43;;;18.90;99.90;;;;;;5035268;28;20530;-70
2023/07/24 06:40:36;;;;;;;9.33;8.53;;;18.90;99.90;;;;;;5035246;28;21021;-70
2023/07/24 06:43:04;;;;;;;9.80;8.33;;;18.90;99.90;;;;;;5035194;28;20455;-70
2023/07/24 06:45:32;;;;;;;9.87;8.97;;;18.90;99.90;;;;;;5035073;28;20926;-70
2023/07/24 06:48:00;;;;;;;9.70;8.80;;;18.90;99.90;;;;;;5035352;28;20431;-70
2023/07/24 06:50:28;;;;;;;9.13;8.33;;;18.90;99.90;;;;;;5035255;28;20524;-70
2023/07/24 06:52:58;;;;;;;10.50;9.63;;;18.90;99.90;;;;;;5035319;28;20434;-70
2023/07/24 06:55:26;;;;;;;9.80;9.03;;;18.90;99.90;;;;;;5035370;28;20441;-70
2023/07/24 06:57:54;;;;;;;9.77;8.97;;;18.90;99.90;;;;;;5034850;28;20442;-70
2023/07/24 07:00:22;;;;;;;9.23;8.53;;;18.90;99.90;;;;;;5034117;28;20475;-69
2023/07/24 07:02:50;;;;;;;10.17;9.37;;;18.90;99.90;;;;;;5036063;28;20534;-70
2023/07/24 07:05:19;;;;;;;10.23;9.33;;;18.90;99.90;;;;;;5036202;28;20477;-70
2023/07/24 07:07:47;;;;;;;9.63;8.93;;;18.90;99.90;;;;;;5035901;28;20477;-69
2023/07/24 07:10:17;;;;;;;10.53;9.50;;;18.90;99.90;;;;;;5035434;28;20453;-70
2023/07/24 07:12:45;;;;;;;13.87;12.47;;;18.90;99.90;;;;;;5034977;28;20431;-70
2023/07/24 07:15:13;;;;;;;12.10;10.80;;;18.90;99.90;;;;;;5034790;28;20489;-70
2023/07/24 07:17:41;;;;;;;11.10;10.00;;;19.00;99.90;;;;;;5034694;28;20441;-70
2023/07/24 07:20:09;;;;;;;11.97;10.87;;;19.00;99.90;;;;;;5034496;28;20446;-70
2023/07/24 07:22:37;;;;;;;10.53;9.73;;;19.00;99.90;;;;;;5034630;28;20525;-70
2023/07/24 07:25:06;;;;;;;12.03;11.03;;;19.00;99.90;;;;;;5034514;28;20471;-71
2023/07/24 07:27:35;;;;;;;12.30;11.30;;;19.00;99.90;;;;;;5033608;28;20606;-70
2023/07/24 07:30:04;;;;;;;13.60;12.20;;;19.00;99.90;;;;;;5034476;28;20498;-70
2023/07/24 07:32:33;;;;;;;11.67;10.70;;;19.00;99.90;;;;;;5034993;28;20489;-70
2023/07/24 07:35:01;;;;;;;12.20;11.20;;;19.00;99.90;;;;;;5034592;28;20458;-71
2023/07/24 07:37:29;;;;;;;11.50;10.50;;;19.10;99.90;;;;;;5034219;28;20434;-70
2023/07/24 07:39:57;;;;;;;12.23;11.33;;;19.10;99.90;;;;;;5034525;28;20470;-69
2023/07/24 07:42:25;;;;;;;13.10;12.10;;;19.10;99.90;;;;;;5032884;28;20498;-70
2023/07/24 07:44:55;;;;;;;13.13;12.10;;;19.10;99.90;;;;;;5034300;28;20461;-70
2023/07/24 07:47:23;;;;;;;11.77;10.97;;;19.10;99.90;;;;;;5032861;28;20570;-70
2023/07/24 07:49:51;;;;;;;11.80;10.90;;;19.10;99.90;;;;;;5032915;28;20497;-70
2023/07/24 07:52:20;;;;;;;12.13;11.13;;;19.20;99.90;;;;;;5033981;28;20482;-70
2023/07/24 07:54:48;;;;;;;12.27;11.30;;;19.20;99.90;;;;;;5034436;28;20466;-70
2023/07/24 07:57:16;;;;;;;12.53;11.53;;;19.20;99.90;;;;;;5033026;28;20447;-70
2023/07/24 07:59:44;;;;;;;13.80;12.57;;;19.30;99.90;;;;;;5034105;28;20533;-70
2023/07/24 08:02:14;;;;;;;12.13;11.13;;;19.30;99.90;;;;;;5032795;28;20478;-70
2023/07/24 08:04:42;;;;;;;12.17;11.17;;;19.40;99.90;;;;;;5033980;28;20446;-70
2023/07/24 08:07:10;;;;;;;13.53;12.43;;;19.40;99.90;;;;;;5033003;28;20511;-70
2023/07/24 08:09:38;;;;;;;11.60;10.50;;;19.50;99.90;;;;;;5032741;28;20550;-71
2023/07/24 08:12:07;;;;;;;12.30;11.30;;;19.50;99.90;;;;;;5032379;28;20467;-70
2023/07/24 08:14:36;;;;;;;12.40;11.30;;;19.50;99.90;;;;;;5033954;28;20430;-71
2023/07/24 08:17:04;;;;;;;12.83;11.73;;;19.50;99.90;;;;;;5032421;28;20474;-70
2023/07/24 08:19:34;;;;;;;12.43;11.43;;;19.50;99.90;;;;;;5034045;28;20443;-70
2023/07/24 08:22:02;;;;;;;12.30;11.40;;;19.50;99.90;;;;;;5033981;28;20541;-70
2023/07/24 08:24:30;;;;;;;12.57;11.57;;;19.60;99.90;;;;;;5033628;28;20473;-71
2023/07/24 08:26:58;;;;;;;13.37;12.37;;;19.60;99.90;;;;;;5032247;28;20561;-70
2023/07/24 08:29:26;;;;;;;14.40;13.30;;;19.60;99.90;;;;;;5033797;28;20466;-70
2023/07/24 08:31:54;;;;;;;13.63;12.63;;;19.60;99.90;;;;;;5033479;28;20458;-70
2023/07/24 08:34:23;;;;;;;15.83;14.47;;;19.60;99.90;;;;;;5033694;28;20512;-70
2023/07/24 08:36:52;;;;;;;13.77;12.73;;;19.60;99.90;;;;;;5033524;28;20437;-70
2023/07/24 08:39:20;;;;;;;13.70;12.60;;;19.60;99.90;;;;;;5033502;28;20518;-70
2023/07/24 08:41:48;;;;;;;12.10;11.10;;;19.70;99.90;;;;;;5033823;28;20462;-70
2023/07/24 08:44:17;;;;;;;13.27;12.27;;;19.70;99.90;;;;;;5034790;28;20497;-71
2023/07/24 08:46:47;;;;;;;12.27;11.17;;;19.80;99.90;;;;;;5034450;28;20502;-71
2023/07/24 08:49:16;;;;;;;12.63;11.60;;;19.70;99.90;;;;;;5034795;28;20545;-71
2023/07/24 08:51:45;;;;;;;11.50;10.53;;;19.80;99.90;;;;;;5034183;28;21073;-71
2023/07/24 08:54:15;;;;;;;10.90;10.10;;;19.90;99.90;;;;;;5034050;28;20449;-70
2023/07/24 08:56:47;;;;;;;11.73;10.83;;;19.90;99.90;;;;;;5034553;28;20816;-70
2023/07/24 08:59:15;;;;;;;11.27;10.30;;;20.00;99.90;;;;;;5034666;28;20478;-71
2023/07/24 09:01:44;;;;;;;11.43;10.47;;;19.90;99.90;;;;;;5034188;28;20557;-71
2023/07/24 09:04:12;;;;;;;11.67;10.77;;;20.00;99.90;;;;;;5033884;28;20439;-71
2023/07/24 09:06:41;;;;;;;12.57;11.67;;;20.10;99.90;;;;;;5034276;28;20459;-71
2023/07/24 09:09:15;;;;;;;12.67;11.60;;;20.10;99.90;;;;;;5034056;28;20446;-72
2023/07/24 09:11:47;;;;;;;10.40;9.70;;;20.20;99.90;;;;;;5036067;28;20473;-71
2023/07/24 09:14:22;;;;;;;12.57;11.57;;;20.20;99.90;;;;;;5037474;28;20431;-71
2023/07/24 09:16:52;;;;;;;12.50;11.50;;;20.20;99.90;;;;;;5036031;28;20447;-71
2023/07/24 09:19:21;;;;;;;10.90;10.10;;;20.30;99.90;;;;;;5035248;28;20427;-71
2023/07/24 09:21:52;;;;;;;10.80;10.00;;;20.30;99.90;;;;;;5035722;28;21047;-71
2023/07/24 09:24:21;;;;;;;12.40;11.33;;;20.30;99.90;;;;;;5034226;28;20438;-71
2023/07/24 09:26:50;;;;;;;11.20;10.40;;;20.30;99.90;;;;;;5034511;28;20492;-71
2023/07/24 09:29:20;;;;;;;11.40;10.60;;;20.30;99.90;;;;;;5034173;28;20493;-71
2023/07/24 09:31:49;;;;;;;12.37;11.57;;;20.40;99.90;;;;;;5034118;28;20460;-71
2023/07/24 09:34:18;;;;;;;11.80;10.73;;;20.50;99.90;;;;;;5032805;28;20522;-71
2023/07/24 09:36:46;;;;;;;11.50;10.60;;;20.60;99.90;;;;;;5033856;28;20442;-71
2023/07/24 09:39:15;;;;;;;10.70;9.80;;;20.60;99.90;;;;;;5032758;28;20952;-71
2023/07/24 09:41:48;;;;;;;10.27;9.57;;;20.70;99.90;;;;;;5033234;28;20459;-70
2023/07/24 09:44:16;;;;;;;10.07;9.37;;;20.80;99.90;;;;;;5033080;28;20888;-70
2023/07/24 09:46:45;;;;;;;9.57;8.80;;;20.90;99.90;;;;;;5033401;28;20972;-71
2023/07/24 09:49:32;;;;;;;9.03;8.33;;;21.00;99.90;;;;;;5033137;28;20426;-70
2023/07/24 09:52:05;;;;;;;8.60;8.00;;;21.10;99.90;;;;;;5036075;28;20812;-70
2023/07/24 09:54:40;;;;;;;8.00;7.43;;;21.10;99.90;;;;;;5036453;28;20423;-70
2023/07/24 09:57:10;;;;;;;9.33;8.63;;;21.20;99.90;;;;;;5036270;28;20826;-71
2023/07/24 09:59:50;;;;;;;9.97;9.23;;;21.20;99.90;;;;;;5036524;28;20430;-71
2023/07/24 10:02:19;;;;;;;9.63;8.83;;;21.30;99.90;;;;;;5035239;28;20557;-71
2023/07/24 10:04:48;;;;;;;9.10;8.40;;;21.30;99.90;;;;;;5036179;28;20442;-71
2023/07/24 10:07:17;;;;;;;9.50;8.80;;;21.40;99.90;;;;;;5037313;28;20467;-72
2023/07/24 10:09:45;;;;;;;9.50;8.80;;;21.50;99.90;;;;;;5036571;28;20797;-72
2023/07/24 10:12:16;;;;;;;8.87;8.27;;;21.60;99.90;;;;;;5036806;28;20489;-71
2023/07/24 10:14:45;;;;;;;9.10;8.50;;;21.80;99.90;;;;;;5035750;28;21026;-71
2023/07/24 10:17:13;;;;;;;9.30;8.60;;;21.90;99.90;;;;;;5035462;28;20513;-71
2023/07/24 10:19:44;;;;;;;8.60;7.97;;;22.00;99.90;;;;;;5037054;28;20935;-71
2023/07/24 10:22:19;;;;;;;7.83;7.30;;;22.00;99.90;;;;;;5035202;28;20570;-71
2023/07/24 10:24:47;;;;;;;8.53;7.73;;;22.10;99.90;;;;;;5037136;28;20447;-72
2023/07/24 10:27:23;;;;;;;7.97;7.27;;;22.20;99.90;;;;;;5036872;28;20473;-72
2023/07/24 10:30:00;;;;;;;8.13;7.53;;;22.20;99.90;;;;;;5036856;28;20425;-72
2023/07/24 10:32:28;;;;;;;8.40;7.70;;;22.20;99.90;;;;;;5036630;28;20970;-72
2023/07/24 10:35:06;;;;;;;7.97;7.37;;;22.30;99.90;;;;;;5035985;28;20491;-71
2023/07/24 10:37:36;;;;;;;8.33;7.73;;;22.30;99.90;;;;;;5036056;28;20451;-71
2023/07/24 10:40:05;;;;;;;8.80;8.00;;;22.30;99.90;;;;;;5033973;28;20454;-72
2023/07/24 10:42:35;;;;;;;8.40;7.80;;;22.30;99.90;;;;;;5035274;28;20438;-71
2023/07/24 10:45:06;;;;;;;8.37;7.67;;;22.40;99.90;;;;;;5035524;28;20529;-72
2023/07/24 10:47:34;;;;;;;8.50;7.90;;;22.30;99.90;;;;;;5033930;28;20554;-72
2023/07/24 10:50:02;;;;;;;9.50;8.73;;;22.40;99.90;;;;;;5033857;28;21018;-72
2023/07/24 10:52:32;;;;;;;7.93;7.33;;;22.40;99.90;;;;;;5033852;28;20454;-71
2023/07/24 10:55:01;;;;;;;8.37;7.77;;;22.50;99.90;;;;;;5033698;28;20466;-72
2023/07/24 10:57:30;;;;;;;8.90;8.20;;;22.50;99.90;;;;;;5033780;28;20554;-72
2023/07/24 11:00:00;;;;;;;8.87;8.17;;;22.60;99.90;;;;;;5034980;28;20514;-72
2023/07/24 11:02:29;;;;;;;8.37;7.70;;;22.60;99.90;;;;;;5034005;28;20871;-72
2023/07/24 11:05:00;;;;;;;9.10;8.40;;;22.70;99.90;;;;;;5035034;28;20439;-72
2023/07/24 11:07:33;;;;;;;9.20;8.50;;;22.80;99.90;;;;;;5035056;28;20462;-72
2023/07/24 11:10:01;;;;;;;9.77;8.97;;;22.80;99.90;;;;;;5035169;28;20542;-72
2023/07/24 11:12:31;;;;;;;10.20;9.20;;;22.90;99.90;;;;;;5034937;28;20816;-72
2023/07/24 11:15:01;;;;;;;9.50;8.80;;;22.90;99.90;;;;;;5035390;28;20431;-72
2023/07/24 11:17:37;;;;;;;9.43;8.80;;;23.00;99.90;;;;;;5034783;28;20470;-72
2023/07/24 11:20:10;;;;;;;9.67;8.97;;;23.10;99.90;;;;;;5033374;28;20873;-72
2023/07/24 11:22:42;;;;;;;9.20;8.40;;;23.10;99.90;;;;;;5035236;28;20423;-72
2023/07/24 11:25:11;;;;;;;9.73;9.00;;;23.20;99.90;;;;;;5033489;28;20554;-72
2023/07/24 11:27:42;;;;;;;9.67;8.97;;;23.30;99.90;;;;;;5034648;28;20831;-72
2023/07/24 11:30:13;;;;;;;10.60;9.60;;;23.30;99.90;;;;;;5033254;28;20525;-71
2023/07/24 11:32:41;;;;;;;11.17;10.37;;;23.30;99.90;;;;;;5034851;28;20426;-72
2023/07/24 11:35:10;;;;;;;11.70;10.83;;;23.30;99.90;;;;;;5034870;28;20467;-72
2023/07/24 11:37:38;;;;;;;11.23;10.33;;;23.30;99.90;;;;;;5032963;28;20479;-72
2023/07/24 11:40:09;;;;;;;11.40;10.60;;;23.30;99.90;;;;;;5034047;28;20437;-71
2023/07/24 11:42:39;;;;;;;12.80;11.90;;;23.40;99.90;;;;;;5034665;28;20458;-72
2023/07/24 11:45:09;;;;;;;12.97;12.07;;;23.40;99.90;;;;;;5033729;28;20443;-72
2023/07/24 11:47:46;;;;;;;11.60;10.63;;;23.50;99.90;;;;;;5034300;28;20420;-72
2023/07/24 11:50:15;;;;;;;10.33;9.60;;;23.60;99.90;;;;;;5032809;28;20956;-72
2023/07/24 11:52:45;;;;;;;10.30;9.30;;;23.60;99.90;;;;;;5032687;28;20446;-72
2023/07/24 11:55:15;;;;;;;10.10;9.07;;;23.60;99.90;;;;;;5034467;28;20454;-72
2023/07/24 11:57:43;;;;;;;10.40;9.60;;;23.70;99.90;;;;;;5034079;28;20445;-72
2023/07/24 12:00:22;;;;;;;10.47;9.67;;;23.70;99.90;;;;;;5033729;28;20546;-72
2023/07/24 12:02:52;;;;;;;11.13;10.30;;;23.70;99.90;;;;;;5032578;28;20538;-72
2023/07/24 12:05:21;;;;;;;10.70;9.80;;;23.80;99.90;;;;;;5034056;28;20423;-72
2023/07/24 12:07:49;;;;;;;10.40;9.60;;;23.80;99.90;;;;;;5032729;28;20451;-72
2023/07/24 12:10:27;;;;;;;10.67;9.87;;;23.80;99.90;;;;;;5033600;28;20813;-71
2023/07/24 12:12:58;;;;;;;9.70;9.00;;;23.80;99.90;;;;;;5033271;28;20786;-71
2023/07/24 12:15:27;;;;;;;11.37;10.47;;;23.80;99.90;;;;;;5034430;28;20447;-73
2023/07/24 12:17:57;;;;;;;10.43;9.67;;;23.80;99.90;;;;;;5033636;28;20525;-73
2023/07/24 12:20:25;;;;;;;11.20;10.30;;;23.80;99.90;;;;;;5033978;28;20452;-72
2023/07/24 12:22:53;;;;;;;11.80;10.80;;;23.80;99.90;;;;;;5034329;28;20478;-72
2023/07/24 12:25:21;;;;;;;10.40;9.57;;;23.80;99.90;;;;;;5033884;28;20933;-72
2023/07/24 12:27:50;;;;;;;9.07;8.27;;;23.90;99.90;;;;;;5033069;28;20542;-72
2023/07/24 12:30:18;;;;;;;10.37;9.47;;;23.90;99.90;;;;;;5032225;28;20514;-72
2023/07/24 12:32:47;;;;;;;8.90;8.20;;;24.00;99.90;;;;;;5032291;28;20557;-72
2023/07/24 12:35:17;;;;;;;9.93;9.23;;;24.00;99.90;;;;;;5033466;28;20435;-72
2023/07/24 12:37:45;;;;;;;10.03;9.20;;;24.00;99.90;;;;;;5033634;28;20481;-72
2023/07/24 12:40:14;;;;;;;10.30;9.40;;;24.10;99.90;;;;;;5031974;28;20442;-72
2023/07/24 12:42:42;;;;;;;10.47;9.53;;;24.20;99.90;;;;;;5031985;28;21019;-72
2023/07/24 12:45:10;;;;;;;9.57;8.87;;;24.30;99.90;;;;;;5033866;28;20842;-72
2023/07/24 12:47:38;;;;;;;9.60;8.90;;;24.30;99.90;;;;;;5033263;28;20489;-72
2023/07/24 12:50:07;;;;;;;9.93;9.03;;;24.40;99.90;;;;;;5032942;28;21173;-72